sensor_id;sensor_type;location;lat;lon;timestamp;pressure;altitude;pressure_sealevel;temperature;humidity
13705;BME280;6924;52.122;9.952;2023-11-18T00:01:43;101345.44;;;5.98;100.00
13705;BME280;6924;52.122;9.952;2023-11-18T00:04:11;101357.50;;;5.98;100.00
13705;BME280;6924;52.122;9.952;2023-11-18T00:06:41;101363.88;;;5.94;100.00
13705;BME280;6924;52.122;9.952;2023-11-18T00:09:09;101361.59;;;5.91;100.00
13705;BME280;6924;52.122;9.952;2023-11-18T00:11:38;101365.47;;;5.85;100.00
13705;BME280;6924;52.122;9.952;2023-11-18T00:14:05;101365.72;;;5.83;100.00
13705;BME280;6924;52.122;9.952;2023-11-18T00:16:31;101368.78;;;5.82;100.00
13705;BME280;6924;52.122;9.952;2023-11-18T00:18:59;101372.78;;;5.86;100.00
13705;BME280;6924;52.122;9.952;2023-11-18T00:21:29;101365.41;;;5.79;100.00
13705;BME280;6924;52.122;9.952;2023-11-18T00:23:56;101370.50;;;5.83;100.00
13705;BME280;6924;52.122;9.952;2023-11-18T00:26:22;101369.38;;;5.84;100.00
13705;BME280;6924;52.122;9.952;2023-11-18T00:28:49;101362.66;;;5.85;100.00
13705;BME280;6924;52.122;9.952;2023-11-18T00:31:15;101359.00;;;5.84;100.00
13705;BME280;6924;52.122;9.952;2023-11-18T00:33:44;101357.97;;;5.68;100.00
13705;BME280;6924;52.122;9.952;2023-11-18T00:36:11;101352.44;;;5.73;100.00
13705;BME280;6924;52.122;9.952;2023-11-18T00:38:39;101345.94;;;5.73;100.00
13705;BME280;6924;52.122;9.952;2023-11-18T00:41:09;101345.56;;;5.64;100.00
13705;BME280;6924;52.122;9.952;2023-11-18T00:43:35;101361.06;;;5.67;100.00
13705;BME280;6924;52.122;9.952;2023-11-18T00:46:02;101370.78;;;5.59;100.00
13705;BME280;6924;52.122;9.952;2023-11-18T00:48:30;101363.34;;;5.48;100.00
13705;BME280;6924;52.122;9.952;2023-11-18T00:50:57;101364.38;;;5.42;100.00
13705;BME280;6924;52.122;9.952;2023-11-18T00:53:23;101378.09;;;5.38;100.00
13705;BME280;6924;52.122;9.952;2023-11-18T00:55:51;101381.66;;;5.33;100.00
13705;BME280;6924;52.122;9.952;2023-11-18T00:58:18;101380.75;;;5.28;100.00
13705;BME280;6924;52.122;9.952;2023-11-18T01:00:44;101379.59;;;5.24;100.00
13705;BME280;6924;52.122;9.952;2023-11-18T01:03:11;101369.69;;;5.16;100.00
13705;BME280;6924;52.122;9.952;2023-11-18T01:05:37;101384.00;;;5.20;100.00
13705;BME280;6924;52.122;9.952;2023-11-18T01:08:04;101384.84;;;5.20;100.00
13705;BME280;6924;52.122;9.952;2023-11-18T01:10:31;101391.06;;;5.22;100.00
13705;BME280;6924;52.122;9.952;2023-11-18T01:12:59;101388.84;;;5.24;100.00
13705;BME280;6924;52.122;9.952;2023-11-18T01:15:28;101392.53;;;5.25;100.00
13705;BME280;6924;52.122;9.952;2023-11-18T01:17:56;101398.97;;;5.25;100.00
13705;BME280;6924;52.122;9.952;2023-11-18T01:20:23;101401.50;;;5.27;100.00
13705;BME280;6924;52.122;9.952;2023-11-18T01:22:49;101395.88;;;5.27;100.00
13705;BME280;6924;52.122;9.952;2023-11-18T01:25:17;101399.03;;;5.30;100.00
13705;BME280;6924;52.122;9.952;2023-11-18T01:27:44;101405.56;;;5.36;100.00
13705;BME280;6924;52.122;9.952;2023-11-18T01:30:14;101397.75;;;5.38;100.00
13705;BME280;6924;52.122;9.952;2023-11-18T01:32:41;101408.44;;;5.41;100.00
13705;BME280;6924;52.122;9.952;2023-11-18T01:35:08;101394.66;;;5.39;100.00
13705;BME280;6924;52.122;9.952;2023-11-18T01:37:36;101406.34;;;5.31;100.00
13705;BME280;6924;52.122;9.952;2023-11-18T01:40:03;101397.22;;;5.41;100.00
13705;BME280;6924;52.122;9.952;2023-11-18T01:42:32;101396.78;;;5.49;100.00
13705;BME280;6924;52.122;9.952;2023-11-18T01:44:58;101406.09;;;5.55;100.00
13705;BME280;6924;52.122;9.952;2023-11-18T01:47:31;101405.00;;;5.56;100.00
13705;BME280;6924;52.122;9.952;2023-11-18T01:49:59;101413.72;;;5.59;100.00
13705;BME280;6924;52.122;9.952;2023-11-18T01:52:26;101411.78;;;5.60;100.00
13705;BME280;6924;52.122;9.952;2023-11-18T01:54:55;101410.41;;;5.63;100.00
13705;BME280;6924;52.122;9.952;2023-11-18T01:57:22;101418.28;;;5.66;100.00
13705;BME280;6924;52.122;9.952;2023-11-18T01:59:49;101423.66;;;5.67;100.00
13705;BME280;6924;52.122;9.952;2023-11-18T02:02:15;101419.47;;;5.70;100.00
13705;BME280;6924;52.122;9.952;2023-11-18T02:04:43;101415.22;;;5.67;100.00
13705;BME280;6924;52.122;9.952;2023-11-18T02:07:10;101418.34;;;5.71;100.00
13705;BME280;6924;52.122;9.952;2023-11-18T02:09:40;101411.91;;;5.70;100.00
13705;BME280;6924;52.122;9.952;2023-11-18T02:12:15;101417.25;;;5.72;100.00
13705;BME280;6924;52.122;9.952;2023-11-18T02:14:49;101415.28;;;5.72;100.00
13705;BME280;6924;52.122;9.952;2023-11-18T02:17:18;101423.13;;;5.70;100.00
13705;BME280;6924;52.122;9.952;2023-11-18T02:19:50;101424.31;;;5.74;100.00
13705;BME280;6924;52.122;9.952;2023-11-18T02:22:20;101426.84;;;5.76;100.00
13705;BME280;6924;52.122;9.952;2023-11-18T02:24:47;101430.56;;;5.82;100.00
13705;BME280;6924;52.122;9.952;2023-11-18T02:27:15;101430.75;;;5.75;100.00
13705;BME280;6924;52.122;9.952;2023-11-18T02:29:45;101429.38;;;5.77;100.00
13705;BME280;6924;52.122;9.952;2023-11-18T02:32:19;101436.13;;;5.76;100.00
13705;BME280;6924;52.122;9.952;2023-11-18T02:34:51;101440.59;;;5.77;100.00
13705;BME280;6924;52.122;9.952;2023-11-18T02:37:21;101447.09;;;5.78;100.00
13705;BME280;6924;52.122;9.952;2023-11-18T02:39:53;101449.03;;;5.77;100.00
13705;BME280;6924;52.122;9.952;2023-11-18T02:42:27;101441.47;;;5.78;100.00
13705;BME280;6924;52.122;9.952;2023-11-18T02:44:57;101450.75;;;5.78;100.00
13705;BME280;6924;52.122;9.952;2023-11-18T02:47:25;101445.97;;;5.79;100.00
13705;BME280;6924;52.122;9.952;2023-11-18T02:49:54;101443.16;;;5.79;100.00
13705;BME280;6924;52.122;9.952;2023-11-18T02:52:21;101448.53;;;5.80;100.00
13705;BME280;6924;52.122;9.952;2023-11-18T02:54:47;101442.31;;;5.78;100.00
13705;BME280;6924;52.122;9.952;2023-11-18T02:57:14;101443.16;;;5.79;100.00
13705;BME280;6924;52.122;9.952;2023-11-18T02:59:45;101440.88;;;5.76;100.00
13705;BME280;6924;52.122;9.952;2023-11-18T03:02:12;101443.31;;;5.67;100.00
13705;BME280;6924;52.122;9.952;2023-11-18T03:04:39;101437.75;;;5.72;100.00
13705;BME280;6924;52.122;9.952;2023-11-18T03:07:07;101424.50;;;5.68;100.00
13705;BME280;6924;52.122;9.952;2023-11-18T03:09:34;101422.88;;;5.72;100.00
13705;BME280;6924;52.122;9.952;2023-11-18T03:12:03;101420.31;;;5.70;100.00
13705;BME280;6924;52.122;9.952;2023-11-18T03:14:33;101420.91;;;5.72;100.00
13705;BME280;6924;52.122;9.952;2023-11-18T03:17:01;101418.88;;;5.68;100.00
13705;BME280;6924;52.122;9.952;2023-11-18T03:19:31;101429.84;;;5.69;100.00
13705;BME280;6924;52.122;9.952;2023-11-18T03:21:59;101422.47;;;5.63;100.00
13705;BME280;6924;52.122;9.952;2023-11-18T03:24:25;101426.19;;;5.69;100.00
13705;BME280;6924;52.122;9.952;2023-11-18T03:26:53;101423.66;;;5.67;100.00
13705;BME280;6924;52.122;9.952;2023-11-18T03:29:20;101429.47;;;5.61;100.00
13705;BME280;6924;52.122;9.952;2023-11-18T03:31:46;101436.50;;;5.63;100.00
13705;BME280;6924;52.122;9.952;2023-11-18T03:34:15;101439.91;;;5.65;100.00
13705;BME280;6924;52.122;9.952;2023-11-18T03:36:41;101442.97;;;5.64;100.00
13705;BME280;6924;52.122;9.952;2023-11-18T03:39:09;101448.31;;;5.65;100.00
13705;BME280;6924;52.122;9.952;2023-11-18T03:41:36;101448.28;;;5.60;100.00
13705;BME280;6924;52.122;9.952;2023-11-18T03:44:03;101450.75;;;5.56;100.00
13705;BME280;6924;52.122;9.952;2023-11-18T03:46:32;101444.53;;;5.54;100.00
13705;BME280;6924;52.122;9.952;2023-11-18T03:48:59;101447.59;;;5.53;100.00
13705;BME280;6924;52.122;9.952;2023-11-18T03:51:27;101450.41;;;5.53;100.00
13705;BME280;6924;52.122;9.952;2023-11-18T03:53:54;101439.94;;;5.48;100.00
13705;BME280;6924;52.122;9.952;2023-11-18T03:56:22;101450.41;;;5.53;100.00
13705;BME280;6924;52.122;9.952;2023-11-18T03:58:49;101452.94;;;5.54;100.00
13705;BME280;6924;52.122;9.952;2023-11-18T04:01:20;101448.19;;;5.55;100.00
13705;BME280;6924;52.122;9.952;2023-11-18T04:03:46;101442.84;;;5.53;100.00
13705;BME280;6924;52.122;9.952;2023-11-18T04:06:13;101438.91;;;5.54;100.00
13705;BME280;6924;52.122;9.952;2023-11-18T04:08:44;101448.53;;;5.58;100.00
13705;BME280;6924;52.122;9.952;2023-11-18T04:11:10;101442.06;;;5.58;100.00
13705;BME280;6924;52.122;9.952;2023-11-18T04:13:37;101438.72;;;5.61;100.00
13705;BME280;6924;52.122;9.952;2023-11-18T04:16:04;101443.81;;;5.64;100.00
13705;BME280;6924;52.122;9.952;2023-11-18T04:18:31;101435.97;;;5.66;100.00
13705;BME280;6924;52.122;9.952;2023-11-18T04:20:58;101434.59;;;5.69;100.00
13705;BME280;6924;52.122;9.952;2023-11-18T04:23:24;101439.13;;;5.70;100.00
13705;BME280;6924;52.122;9.952;2023-11-18T04:25:52;101440.81;;;5.71;100.00
13705;BME280;6924;52.122;9.952;2023-11-18T04:28:19;101433.84;;;5.73;100.00
13705;BME280;6924;52.122;9.952;2023-11-18T04:30:45;101431.03;;;5.73;100.00
13705;BME280;6924;52.122;9.952;2023-11-18T04:33:12;101424.88;;;5.76;100.00
13705;BME280;6924;52.122;9.952;2023-11-18T04:35:39;101416.81;;;5.80;100.00
13705;BME280;6924;52.122;9.952;2023-11-18T04:38:06;101400.16;;;5.73;100.00
13705;BME280;6924;52.122;9.952;2023-11-18T04:40:33;101407.47;;;5.74;100.00
13705;BME280;6924;52.122;9.952;2023-11-18T04:43:02;101407.13;;;5.71;100.00
13705;BME280;6924;52.122;9.952;2023-11-18T04:45:29;101419.28;;;5.76;100.00
13705;BME280;6924;52.122;9.952;2023-11-18T04:47:56;101411.38;;;5.73;100.00
13705;BME280;6924;52.122;9.952;2023-11-18T04:50:24;101409.16;;;5.75;100.00
13705;BME280;6924;52.122;9.952;2023-11-18T04:52:51;101407.41;;;5.69;100.00
13705;BME280;6924;52.122;9.952;2023-11-18T04:55:17;101415.81;;;5.69;100.00
13705;BME280;6924;52.122;9.952;2023-11-18T04:57:44;101413.03;;;5.69;100.00
13705;BME280;6924;52.122;9.952;2023-11-18T05:00:13;101421.16;;;5.71;100.00
13705;BME280;6924;52.122;9.952;2023-11-18T05:02:42;101416.41;;;5.71;100.00
13705;BME280;6924;52.122;9.952;2023-11-18T05:05:10;101402.03;;;5.68;100.00
13705;BME280;6924;52.122;9.952;2023-11-18T05:07:37;101391.34;;;5.65;100.00
13705;BME280;6924;52.122;9.952;2023-11-18T05:10:05;101401.44;;;5.66;100.00
13705;BME280;6924;52.122;9.952;2023-11-18T05:12:33;101403.38;;;5.60;100.00
13705;BME280;6924;52.122;9.952;2023-11-18T05:15:00;101400.41;;;5.50;100.00
13705;BME280;6924;52.122;9.952;2023-11-18T05:17:29;101392.44;;;5.42;100.00
13705;BME280;6924;52.122;9.952;2023-11-18T05:19:56;101397.75;;;5.38;100.00
13705;BME280;6924;52.122;9.952;2023-11-18T05:22:23;101391.25;;;5.37;100.00
13705;BME280;6924;52.122;9.952;2023-11-18T05:24:49;101406.59;;;5.30;100.00
13705;BME280;6924;52.122;9.952;2023-11-18T05:27:16;101396.41;;;5.24;100.00
13705;BME280;6924;52.122;9.952;2023-11-18T05:29:43;101387.41;;;5.22;100.00
13705;BME280;6924;52.122;9.952;2023-11-18T05:32:19;101387.94;;;5.18;100.00
13705;BME280;6924;52.122;9.952;2023-11-18T05:34:49;101388.97;;;5.12;100.00
13705;BME280;6924;52.122;9.952;2023-11-18T05:37:18;101389.50;;;5.09;100.00
13705;BME280;6924;52.122;9.952;2023-11-18T05:39:45;101383.19;;;5.02;100.00
13705;BME280;6924;52.122;9.952;2023-11-18T05:42:14;101405.63;;;5.02;100.00
13705;BME280;6924;52.122;9.952;2023-11-18T05:44:41;101399.72;;;4.99;100.00
13705;BME280;6924;52.122;9.952;2023-11-18T05:47:08;101399.28;;;4.90;100.00
13705;BME280;6924;52.122;9.952;2023-11-18T05:49:36;101391.97;;;4.89;100.00
13705;BME280;6924;52.122;9.952;2023-11-18T05:52:05;101384.00;;;4.81;100.00
13705;BME280;6924;52.122;9.952;2023-11-18T05:54:32;101378.31;;;4.75;100.00
13705;BME280;6924;52.122;9.952;2023-11-18T05:56:58;101374.84;;;4.68;100.00
13705;BME280;6924;52.122;9.952;2023-11-18T05:59:26;101383.25;;;4.68;100.00
13705;BME280;6924;52.122;9.952;2023-11-18T06:01:53;101367.19;;;4.64;100.00
13705;BME280;6924;52.122;9.952;2023-11-18T06:04:19;101365.84;;;4.66;100.00
13705;BME280;6924;52.122;9.952;2023-11-18T06:06:46;101366.59;;;4.62;100.00
13705;BME280;6924;52.122;9.952;2023-11-18T06:09:14;101374.78;;;4.63;100.00
13705;BME280;6924;52.122;9.952;2023-11-18T06:11:46;101375.53;;;4.59;100.00
13705;BME280;6924;52.122;9.952;2023-11-18T06:14:12;101387.00;;;4.57;100.00
13705;BME280;6924;52.122;9.952;2023-11-18T06:16:39;101379.94;;;4.54;100.00
13705;BME280;6924;52.122;9.952;2023-11-18T06:19:06;101374.25;;;4.49;100.00
13705;BME280;6924;52.122;9.952;2023-11-18T06:21:33;101378.41;;;4.47;100.00
13705;BME280;6924;52.122;9.952;2023-11-18T06:24:00;101379.16;;;4.42;100.00
13705;BME280;6924;52.122;9.952;2023-11-18T06:26:30;101385.28;;;4.39;100.00
13705;BME280;6924;52.122;9.952;2023-11-18T06:28:57;101381.78;;;4.32;100.00
13705;BME280;6924;52.122;9.952;2023-11-18T06:31:24;101383.41;;;4.28;100.00
13705;BME280;6924;52.122;9.952;2023-11-18T06:33:51;101375.66;;;4.18;100.00
13705;BME280;6924;52.122;9.952;2023-11-18T06:36:21;101388.81;;;4.18;100.00
13705;BME280;6924;52.122;9.952;2023-11-18T06:38:51;101390.66;;;4.12;100.00
13705;BME280;6924;52.122;9.952;2023-11-18T06:41:22;101402.59;;;4.19;100.00
13705;BME280;6924;52.122;9.952;2023-11-18T06:43:52;101400.63;;;4.20;100.00
13705;BME280;6924;52.122;9.952;2023-11-18T06:46:27;101401.09;;;4.17;100.00
13705;BME280;6924;52.122;9.952;2023-11-18T06:48:57;101393.75;;;4.10;100.00
13705;BME280;6924;52.122;9.952;2023-11-18T06:51:25;101386.59;;;4.03;100.00
13705;BME280;6924;52.122;9.952;2023-11-18T06:53:55;101399.91;;;3.96;100.00
13705;BME280;6924;52.122;9.952;2023-11-18T06:56:22;101408.91;;;3.98;100.00
13705;BME280;6924;52.122;9.952;2023-11-18T06:58:48;101412.31;;;3.88;100.00
13705;BME280;6924;52.122;9.952;2023-11-18T07:01:18;101430.84;;;3.89;100.00
13705;BME280;6924;52.122;9.952;2023-11-18T07:03:46;101443.63;;;3.85;100.00
13705;BME280;6924;52.122;9.952;2023-11-18T07:06:16;101427.66;;;3.85;100.00
13705;BME280;6924;52.122;9.952;2023-11-18T07:08:47;101422.94;;;3.86;100.00
13705;BME280;6924;52.122;9.952;2023-11-18T07:11:20;101418.66;;;3.83;100.00
13705;BME280;6924;52.122;9.952;2023-11-18T07:13:47;101419.41;;;3.79;100.00
13705;BME280;6924;52.122;9.952;2023-11-18T07:16:16;101418.34;;;3.80;100.00
13705;BME280;6924;52.122;9.952;2023-11-18T07:18:44;101429.38;;;3.86;100.00
13705;BME280;6924;52.122;9.952;2023-11-18T07:21:16;101435.91;;;3.92;100.00
13705;BME280;6924;52.122;9.952;2023-11-18T07:23:43;101426.59;;;3.86;100.00
13705;BME280;6924;52.122;9.952;2023-11-18T07:26:10;101430.44;;;3.97;100.00
13705;BME280;6924;52.122;9.952;2023-11-18T07:28:36;101433.94;;;4.04;100.00
13705;BME280;6924;52.122;9.952;2023-11-18T07:31:03;101425.28;;;4.06;100.00
13705;BME280;6924;52.122;9.952;2023-11-18T07:33:37;101425.63;;;4.09;100.00
13705;BME280;6924;52.122;9.952;2023-11-18T07:36:05;101432.44;;;4.13;100.00
13705;BME280;6924;52.122;9.952;2023-11-18T07:38:36;101421.75;;;4.10;100.00
13705;BME280;6924;52.122;9.952;2023-11-18T07:41:05;101428.03;;;4.18;100.00
13705;BME280;6924;52.122;9.952;2023-11-18T07:43:33;101423.63;;;4.22;100.00
13705;BME280;6924;52.122;9.952;2023-11-18T07:46:01;101424.47;;;4.22;100.00
13705;BME280;6924;52.122;9.952;2023-11-18T07:48:28;101426.44;;;4.22;100.00
13705;BME280;6924;52.122;9.952;2023-11-18T07:50:59;101430.44;;;4.26;100.00
13705;BME280;6924;52.122;9.952;2023-11-18T07:53:25;101435.16;;;4.25;100.00
13705;BME280;6924;52.122;9.952;2023-11-18T07:55:54;101434.91;;;4.27;100.00
13705;BME280;6924;52.122;9.952;2023-11-18T07:58:21;101443.41;;;4.32;100.00
13705;BME280;6924;52.122;9.952;2023-11-18T08:00:48;101441.19;;;4.34;100.00
13705;BME280;6924;52.122;9.952;2023-11-18T08:03:15;101444.34;;;4.38;100.00
13705;BME280;6924;52.122;9.952;2023-11-18T08:05:44;101445.81;;;4.40;100.00
13705;BME280;6924;52.122;9.952;2023-11-18T08:08:13;101451.25;;;4.47;100.00
13705;BME280;6924;52.122;9.952;2023-11-18T08:10:42;101444.88;;;4.51;100.00
13705;BME280;6924;52.122;9.952;2023-11-18T08:13:10;101434.78;;;4.50;100.00
13705;BME280;6924;52.122;9.952;2023-11-18T08:15:40;101432.66;;;4.58;100.00
13705;BME280;6924;52.122;9.952;2023-11-18T08:18:07;101432.75;;;4.63;100.00
13705;BME280;6924;52.122;9.952;2023-11-18T08:20:38;101426.97;;;4.69;100.00
13705;BME280;6924;52.122;9.952;2023-11-18T08:23:05;101422.56;;;4.73;100.00
13705;BME280;6924;52.122;9.952;2023-11-18T08:25:33;101409.91;;;4.71;100.00
13705;BME280;6924;52.122;9.952;2023-11-18T08:28:00;101410.06;;;4.64;100.00
13705;BME280;6924;52.122;9.952;2023-11-18T08:30:27;101404.22;;;4.66;100.00
13705;BME280;6924;52.122;9.952;2023-11-18T08:32:53;101393.09;;;4.71;100.00
13705;BME280;6924;52.122;9.952;2023-11-18T08:35:20;101399.53;;;4.71;100.00
13705;BME280;6924;52.122;9.952;2023-11-18T08:37:47;101401.69;;;4.81;100.00
13705;BME280;6924;52.122;9.952;2023-11-18T08:40:14;101404.47;;;4.81;100.00
13705;BME280;6924;52.122;9.952;2023-11-18T08:42:43;101400.47;;;4.77;100.00
13705;BME280;6924;52.122;9.952;2023-11-18T08:45:15;101390.28;;;4.71;100.00
13705;BME280;6924;52.122;9.952;2023-11-18T08:47:44;101402.09;;;4.73;100.00
13705;BME280;6924;52.122;9.952;2023-11-18T08:50:12;101405.50;;;4.75;100.00
13705;BME280;6924;52.122;9.952;2023-11-18T08:52:39;101404.47;;;4.64;100.00
13705;BME280;6924;52.122;9.952;2023-11-18T08:55:10;101408.13;;;4.65;100.00
13705;BME280;6924;52.122;9.952;2023-11-18T08:57:44;101417.47;;;4.70;100.00
13705;BME280;6924;52.122;9.952;2023-11-18T09:00:22;101412.63;;;4.83;100.00
13705;BME280;6924;52.122;9.952;2023-11-18T09:03:06;101423.34;;;4.86;100.00
13705;BME280;6924;52.122;9.952;2023-11-18T09:05:32;101424.34;;;4.96;100.00
13705;BME280;6924;52.122;9.952;2023-11-18T09:08:01;101426.31;;;5.18;100.00
13705;BME280;6924;52.122;9.952;2023-11-18T09:10:31;101422.00;;;5.27;100.00
13705;BME280;6924;52.122;9.952;2023-11-18T09:12:59;101415.91;;;5.35;100.00
13705;BME280;6924;52.122;9.952;2023-11-18T09:15:25;101407.06;;;5.44;100.00
13705;BME280;6924;52.122;9.952;2023-11-18T09:17:56;101411.44;;;5.56;100.00
13705;BME280;6924;52.122;9.952;2023-11-18T09:20:23;101406.41;;;5.58;100.00
13705;BME280;6924;52.122;9.952;2023-11-18T09:22:50;101400.41;;;5.50;100.00
13705;BME280;6924;52.122;9.952;2023-11-18T09:25:21;101398.69;;;5.71;100.00
13705;BME280;6924;52.122;9.952;2023-11-18T09:27:47;101393.16;;;5.76;100.00
13705;BME280;6924;52.122;9.952;2023-11-18T09:30:15;101388.53;;;5.87;100.00
13705;BME280;6924;52.122;9.952;2023-11-18T09:32:42;101380.41;;;5.90;100.00
13705;BME280;6924;52.122;9.952;2023-11-18T09:35:13;101382.53;;;6.00;100.00
13705;BME280;6924;52.122;9.952;2023-11-18T09:37:39;101381.44;;;5.84;100.00
13705;BME280;6924;52.122;9.952;2023-11-18T09:40:08;101393.25;;;5.86;100.00
13705;BME280;6924;52.122;9.952;2023-11-18T09:42:39;101380.41;;;5.90;100.00
13705;BME280;6924;52.122;9.952;2023-11-18T09:45:09;101382.03;;;5.86;100.00
13705;BME280;6924;52.122;9.952;2023-11-18T09:47:42;101382.44;;;5.95;100.00
13705;BME280;6924;52.122;9.952;2023-11-18T09:50:16;101372.66;;;5.97;99.79
13705;BME280;6924;52.122;9.952;2023-11-18T09:52:48;101375.47;;;5.97;98.84
13705;BME280;6924;52.122;9.952;2023-11-18T09:55:23;101373.31;;;5.83;99.30
13705;BME280;6924;52.122;9.952;2023-11-18T09:57:55;101379.81;;;5.88;99.13
13705;BME280;6924;52.122;9.952;2023-11-18T10:00:26;101369.50;;;5.94;97.35
13705;BME280;6924;52.122;9.952;2023-11-18T10:02:59;101376.69;;;6.07;96.02
13705;BME280;6924;52.122;9.952;2023-11-18T10:05:26;101371.06;;;6.07;96.56
13705;BME280;6924;52.122;9.952;2023-11-18T10:07:55;101369.78;;;6.19;97.35
13705;BME280;6924;52.122;9.952;2023-11-18T10:10:23;101362.03;;;6.32;97.64
13705;BME280;6924;52.122;9.952;2023-11-18T10:12:56;101361.50;;;6.35;94.31
13705;BME280;6924;52.122;9.952;2023-11-18T10:15:25;101348.09;;;6.42;93.81
13705;BME280;6924;52.122;9.952;2023-11-18T10:17:53;101350.38;;;6.50;91.29
13705;BME280;6924;52.122;9.952;2023-11-18T10:20:43;101351.59;;;6.59;90.66
13705;BME280;6924;52.122;9.952;2023-11-18T10:23:11;101344.81;;;6.55;90.93
13705;BME280;6924;52.122;9.952;2023-11-18T10:25:45;101335.13;;;6.73;89.56
13705;BME280;6924;52.122;9.952;2023-11-18T10:28:21;101327.63;;;6.89;92.19
13705;BME280;6924;52.122;9.952;2023-11-18T10:30:48;101317.03;;;7.07;90.18
13705;BME280;6924;52.122;9.952;2023-11-18T10:33:16;101312.63;;;7.21;88.73
13705;BME280;6924;52.122;9.952;2023-11-18T10:35:53;101312.06;;;7.29;87.37
13705;BME280;6924;52.122;9.952;2023-11-18T10:38:22;101316.88;;;7.34;87.11
13705;BME280;6924;52.122;9.952;2023-11-18T10:40:52;101325.06;;;7.35;87.86
13705;BME280;6924;52.122;9.952;2023-11-18T10:43:21;101319.66;;;7.29;85.79
13705;BME280;6924;52.122;9.952;2023-11-18T10:45:50;101309.31;;;7.34;86.53
13705;BME280;6924;52.122;9.952;2023-11-18T10:48:19;101311.00;;;7.40;86.66
13705;BME280;6924;52.122;9.952;2023-11-18T10:50:49;101310.47;;;7.43;86.09
13705;BME280;6924;52.122;9.952;2023-11-18T10:53:18;101311.03;;;7.51;86.51
13705;BME280;6924;52.122;9.952;2023-11-18T10:55:46;101298.69;;;7.62;87.07
13705;BME280;6924;52.122;9.952;2023-11-18T10:58:13;101291.94;;;7.68;85.01
13705;BME280;6924;52.122;9.952;2023-11-18T11:00:50;101296.97;;;7.56;84.52
13705;BME280;6924;52.122;9.952;2023-11-18T11:03:18;101296.91;;;7.40;83.92
13705;BME280;6924;52.122;9.952;2023-11-18T11:05:48;101300.28;;;7.37;85.21
13705;BME280;6924;52.122;9.952;2023-11-18T11:08:15;101290.69;;;7.28;85.92
13705;BME280;6924;52.122;9.952;2023-11-18T11:10:43;101285.00;;;7.18;86.89
13705;BME280;6924;52.122;9.952;2023-11-18T11:13:11;101281.63;;;7.11;86.90
13705;BME280;6924;52.122;9.952;2023-11-18T11:15:41;101269.22;;;7.12;87.78
13705;BME280;6924;52.122;9.952;2023-11-18T11:18:19;101265.59;;;7.16;85.71
13705;BME280;6924;52.122;9.952;2023-11-18T11:20:56;101242.50;;;7.14;86.36
13705;BME280;6924;52.122;9.952;2023-11-18T11:23:35;101237.44;;;7.16;87.96
13705;BME280;6924;52.122;9.952;2023-11-18T11:26:19;101234.31;;;7.08;87.07
13705;BME280;6924;52.122;9.952;2023-11-18T11:28:59;101239.41;;;7.11;87.43
13705;BME280;6924;52.122;9.952;2023-11-18T11:31:32;101234.31;;;7.08;86.96
13705;BME280;6924;52.122;9.952;2023-11-18T11:34:02;101241.00;;;6.91;88.04
13705;BME280;6924;52.122;9.952;2023-11-18T11:36:37;101224.19;;;7.01;87.94
13705;BME280;6924;52.122;9.952;2023-11-18T11:39:06;101228.66;;;6.92;88.83
13705;BME280;6924;52.122;9.952;2023-11-18T11:41:43;101244.16;;;7.00;90.09
13705;BME280;6924;52.122;9.952;2023-11-18T11:44:12;101239.09;;;7.07;89.46
13705;BME280;6924;52.122;9.952;2023-11-18T11:46:39;101230.38;;;7.03;89.75
13705;BME280;6924;52.122;9.952;2023-11-18T11:49:09;101225.09;;;7.12;86.49
13705;BME280;6924;52.122;9.952;2023-11-18T11:51:46;101229.84;;;7.07;89.11
13705;BME280;6924;52.122;9.952;2023-11-18T11:54:18;101228.41;;;7.04;89.10
13705;BME280;6924;52.122;9.952;2023-11-18T11:56:49;101223.38;;;7.11;89.75
13705;BME280;6924;52.122;9.952;2023-11-18T11:59:34;101221.97;;;7.14;89.25
13705;BME280;6924;52.122;9.952;2023-11-18T12:02:02;101203.16;;;7.19;90.95
13705;BME280;6924;52.122;9.952;2023-11-18T12:04:33;101190.72;;;7.05;90.57
13705;BME280;6924;52.122;9.952;2023-11-18T12:07:03;101166.53;;;7.04;90.24
13705;BME280;6924;52.122;9.952;2023-11-18T12:09:31;101152.78;;;7.13;91.08
13705;BME280;6924;52.122;9.952;2023-11-18T12:12:05;101153.31;;;7.10;91.54
13705;BME280;6924;52.122;9.952;2023-11-18T12:14:49;101159.25;;;7.13;91.58
13705;BME280;6924;52.122;9.952;2023-11-18T12:17:17;101166.28;;;7.11;91.14
13705;BME280;6924;52.122;9.952;2023-11-18T12:19:48;101172.75;;;7.11;90.10
13705;BME280;6924;52.122;9.952;2023-11-18T12:22:16;101173.00;;;7.04;91.08
13705;BME280;6924;52.122;9.952;2023-11-18T12:28:07;101172.16;;;6.99;91.74
13705;BME280;6924;52.122;9.952;2023-11-18T12:30:45;101170.41;;;6.88;92.05
13705;BME280;6924;52.122;9.952;2023-11-18T12:33:52;101158.63;;;6.96;91.86
13705;BME280;6924;52.122;9.952;2023-11-18T12:36:45;101164.56;;;7.04;91.93
13705;BME280;6924;52.122;9.952;2023-11-18T12:42:58;101166.22;;;7.00;90.92
13705;BME280;6924;52.122;9.952;2023-11-18T12:45:52;101166.22;;;6.90;91.06
13705;BME280;6924;52.122;9.952;2023-11-18T12:48:27;101174.09;;;6.88;92.28
13705;BME280;6924;52.122;9.952;2023-11-18T12:50:57;101166.75;;;6.87;92.19
13705;BME280;6924;52.122;9.952;2023-11-18T12:53:26;101163.94;;;6.87;92.21
13705;BME280;6924;52.122;9.952;2023-11-18T12:55:53;101149.59;;;6.89;90.85
13705;BME280;6924;52.122;9.952;2023-11-18T12:58:21;101155.75;;;6.80;92.36
13705;BME280;6924;52.122;9.952;2023-11-18T13:00:48;101151.84;;;6.81;90.91
13705;BME280;6924;52.122;9.952;2023-11-18T13:03:18;101143.97;;;6.83;90.98
13705;BME280;6924;52.122;9.952;2023-11-18T13:05:45;101138.06;;;6.80;91.66
13705;BME280;6924;52.122;9.952;2023-11-18T13:08:12;101144.78;;;6.79;91.26
13705;BME280;6924;52.122;9.952;2023-11-18T13:10:40;101146.22;;;6.81;90.08
13705;BME280;6924;52.122;9.952;2023-11-18T13:13:07;101150.13;;;6.70;92.13
13705;BME280;6924;52.122;9.952;2023-11-18T13:15:34;101140.25;;;6.68;92.36
13705;BME280;6924;52.122;9.952;2023-11-18T13:18:02;101133.47;;;6.58;92.05
13705;BME280;6924;52.122;9.952;2023-11-18T13:20:33;101128.72;;;6.69;91.88